sensor_id;sensor_type;location;lat;lon;timestamp;P1;durP1;ratioP1;P2;durP2;ratioP2
24216;SDS011;12356;49.386;8.688;2023-07-28T00:01:30;5.68;;;3.28;;
24216;SDS011;12356;49.386;8.688;2023-07-28T00:04:01;5.38;;;3.33;;
24216;SDS011;12356;49.386;8.688;2023-07-28T00:06:37;6.78;;;3.10;;
24216;SDS011;12356;49.386;8.688;2023-07-28T00:09:07;6.32;;;3.28;;
24216;SDS011;12356;49.386;8.688;2023-07-28T00:11:38;4.60;;;3.33;;
24216;SDS011;12356;49.386;8.688;2023-07-28T00:14:08;4.90;;;3.10;;
24216;SDS011;12356;49.386;8.688;2023-07-28T00:16:39;5.95;;;3.38;;
24216;SDS011;12356;49.386;8.688;2023-07-28T00:19:10;5.50;;;3.20;;
24216;SDS011;12356;49.386;8.688;2023-07-28T00:21:41;6.70;;;3.30;;
24216;SDS011;12356;49.386;8.688;2023-07-28T00:24:11;5.10;;;3.28;;
24216;SDS011;12356;49.386;8.688;2023-07-28T00:26:42;5.80;;;3.42;;
24216;SDS011;12356;49.386;8.688;2023-07-28T00:29:14;5.38;;;3.40;;
24216;SDS011;12356;49.386;8.688;2023-07-28T00:31:44;7.72;;;3.50;;
24216;SDS011;12356;49.386;8.688;2023-07-28T00:34:15;5.93;;;3.42;;
24216;SDS011;12356;49.386;8.688;2023-07-28T00:36:46;8.02;;;3.63;;
24216;SDS011;12356;49.386;8.688;2023-07-28T00:39:16;5.05;;;3.13;;
24216;SDS011;12356;49.386;8.688;2023-07-28T00:41:47;7.55;;;3.30;;
24216;SDS011;12356;49.386;8.688;2023-07-28T00:44:17;5.40;;;3.35;;
24216;SDS011;12356;49.386;8.688;2023-07-28T00:46:48;4.93;;;3.33;;
24216;SDS011;12356;49.386;8.688;2023-07-28T00:49:19;7.07;;;3.72;;
24216;SDS011;12356;49.386;8.688;2023-07-28T00:51:49;4.93;;;3.38;;
24216;SDS011;12356;49.386;8.688;2023-07-28T00:54:21;3.83;;;3.20;;
24216;SDS011;12356;49.386;8.688;2023-07-28T00:56:52;4.10;;;3.15;;
24216;SDS011;12356;49.386;8.688;2023-07-28T00:59:23;5.70;;;3.15;;
24216;SDS011;12356;49.386;8.688;2023-07-28T01:01:54;5.50;;;3.78;;
24216;SDS011;12356;49.386;8.688;2023-07-28T01:04:24;6.75;;;3.20;;
24216;SDS011;12356;49.386;8.688;2023-07-28T01:10:24;5.95;;;3.20;;
24216;SDS011;12356;49.386;8.688;2023-07-28T01:12:58;5.22;;;3.33;;
24216;SDS011;12356;49.386;8.688;2023-07-28T01:15:29;4.85;;;3.40;;
24216;SDS011;12356;49.386;8.688;2023-07-28T01:18:00;4.72;;;3.42;;
24216;SDS011;12356;49.386;8.688;2023-07-28T01:20:31;7.32;;;3.60;;
24216;SDS011;12356;49.386;8.688;2023-07-28T01:23:08;7.40;;;3.50;;
24216;SDS011;12356;49.386;8.688;2023-07-28T01:28:32;7.15;;;3.45;;
24216;SDS011;12356;49.386;8.688;2023-07-28T01:31:05;4.55;;;3.38;;
24216;SDS011;12356;49.386;8.688;2023-07-28T01:33:36;3.88;;;3.20;;
24216;SDS011;12356;49.386;8.688;2023-07-28T01:36:07;4.30;;;3.60;;
24216;SDS011;12356;49.386;8.688;2023-07-28T01:38:38;4.95;;;3.42;;
24216;SDS011;12356;49.386;8.688;2023-07-28T01:41:08;4.05;;;3.13;;
24216;SDS011;12356;49.386;8.688;2023-07-28T01:43:39;4.57;;;3.10;;
24216;SDS011;12356;49.386;8.688;2023-07-28T01:46:09;5.35;;;3.20;;
24216;SDS011;12356;49.386;8.688;2023-07-28T01:48:40;9.57;;;3.40;;
24216;SDS011;12356;49.386;8.688;2023-07-28T01:51:10;9.13;;;3.40;;
24216;SDS011;12356;49.386;8.688;2023-07-28T01:53:41;5.07;;;3.17;;
24216;SDS011;12356;49.386;8.688;2023-07-28T01:56:11;4.47;;;3.47;;
24216;SDS011;12356;49.386;8.688;2023-07-28T01:58:42;3.75;;;3.40;;
24216;SDS011;12356;49.386;8.688;2023-07-28T02:01:13;5.53;;;3.10;;
24216;SDS011;12356;49.386;8.688;2023-07-28T02:03:43;3.58;;;2.97;;
24216;SDS011;12356;49.386;8.688;2023-07-28T02:06:14;7.45;;;3.40;;
24216;SDS011;12356;49.386;8.688;2023-07-28T02:08:44;4.50;;;3.13;;
24216;SDS011;12356;49.386;8.688;2023-07-28T02:11:15;7.38;;;3.30;;
24216;SDS011;12356;49.386;8.688;2023-07-28T02:13:46;4.63;;;3.50;;
24216;SDS011;12356;49.386;8.688;2023-07-28T02:16:16;5.07;;;3.30;;
24216;SDS011;12356;49.386;8.688;2023-07-28T02:18:47;5.50;;;3.65;;
24216;SDS011;12356;49.386;8.688;2023-07-28T02:21:17;6.10;;;3.30;;
24216;SDS011;12356;49.386;8.688;2023-07-28T02:23:48;4.68;;;3.50;;
24216;SDS011;12356;49.386;8.688;2023-07-28T02:26:19;7.85;;;3.15;;
24216;SDS011;12356;49.386;8.688;2023-07-28T02:28:49;4.15;;;3.03;;
24216;SDS011;12356;49.386;8.688;2023-07-28T02:31:20;3.80;;;3.30;;
24216;SDS011;12356;49.386;8.688;2023-07-28T02:33:50;3.83;;;3.42;;
24216;SDS011;12356;49.386;8.688;2023-07-28T02:36:21;4.97;;;3.42;;
24216;SDS011;12356;49.386;8.688;2023-07-28T02:38:51;5.45;;;3.30;;
24216;SDS011;12356;49.386;8.688;2023-07-28T02:41:22;6.28;;;3.40;;
24216;SDS011;12356;49.386;8.688;2023-07-28T02:43:52;4.43;;;3.38;;
24216;SDS011;12356;49.386;8.688;2023-07-28T02:46:23;4.70;;;3.33;;
24216;SDS011;12356;49.386;8.688;2023-07-28T02:48:55;6.22;;;3.47;;
24216;SDS011;12356;49.386;8.688;2023-07-28T02:51:26;6.28;;;3.38;;
24216;SDS011;12356;49.386;8.688;2023-07-28T02:53:56;5.15;;;3.90;;
24216;SDS011;12356;49.386;8.688;2023-07-28T02:56:27;6.85;;;3.45;;
24216;SDS011;12356;49.386;8.688;2023-07-28T02:58:57;5.28;;;3.47;;
24216;SDS011;12356;49.386;8.688;2023-07-28T03:01:31;3.90;;;3.50;;
24216;SDS011;12356;49.386;8.688;2023-07-28T03:04:05;5.82;;;3.63;;
24216;SDS011;12356;49.386;8.688;2023-07-28T03:06:36;7.25;;;3.88;;
24216;SDS011;12356;49.386;8.688;2023-07-28T03:09:07;6.55;;;3.70;;
24216;SDS011;12356;49.386;8.688;2023-07-28T03:11:37;4.72;;;3.90;;
24216;SDS011;12356;49.386;8.688;2023-07-28T03:14:08;6.80;;;3.83;;
24216;SDS011;12356;49.386;8.688;2023-07-28T03:16:39;6.25;;;3.72;;
24216;SDS011;12356;49.386;8.688;2023-07-28T03:19:10;5.43;;;3.70;;
24216;SDS011;12356;49.386;8.688;2023-07-28T03:21:40;8.98;;;4.00;;
24216;SDS011;12356;49.386;8.688;2023-07-28T03:24:11;12.23;;;3.90;;
24216;SDS011;12356;49.386;8.688;2023-07-28T03:26:42;7.05;;;4.15;;
24216;SDS011;12356;49.386;8.688;2023-07-28T03:29:12;7.53;;;4.30;;
24216;SDS011;12356;49.386;8.688;2023-07-28T03:31:43;5.25;;;4.00;;
24216;SDS011;12356;49.386;8.688;2023-07-28T03:34:13;6.65;;;4.05;;
24216;SDS011;12356;49.386;8.688;2023-07-28T03:36:44;5.57;;;4.10;;
24216;SDS011;12356;49.386;8.688;2023-07-28T03:39:14;8.93;;;4.25;;
24216;SDS011;12356;49.386;8.688;2023-07-28T03:41:45;6.50;;;4.03;;
24216;SDS011;12356;49.386;8.688;2023-07-28T03:44:16;9.00;;;4.45;;
24216;SDS011;12356;49.386;8.688;2023-07-28T03:46:46;10.30;;;4.80;;
24216;SDS011;12356;49.386;8.688;2023-07-28T03:49:17;9.07;;;4.18;;
24216;SDS011;12356;49.386;8.688;2023-07-28T03:51:47;7.63;;;4.43;;
24216;SDS011;12356;49.386;8.688;2023-07-28T03:54:18;4.35;;;3.70;;
24216;SDS011;12356;49.386;8.688;2023-07-28T03:56:48;5.68;;;3.70;;
24216;SDS011;12356;49.386;8.688;2023-07-28T03:59:19;5.30;;;3.30;;
24216;SDS011;12356;49.386;8.688;2023-07-28T04:01:49;7.03;;;3.83;;
24216;SDS011;12356;49.386;8.688;2023-07-28T04:04:20;4.60;;;3.15;;
24216;SDS011;12356;49.386;8.688;2023-07-28T04:06:51;4.55;;;3.20;;
24216;SDS011;12356;49.386;8.688;2023-07-28T04:09:23;8.52;;;3.05;;
24216;SDS011;12356;49.386;8.688;2023-07-28T04:11:54;3.50;;;2.70;;
24216;SDS011;12356;49.386;8.688;2023-07-28T04:14:25;7.10;;;3.00;;
24216;SDS011;12356;49.386;8.688;2023-07-28T04:16:55;4.20;;;2.80;;
24216;SDS011;12356;49.386;8.688;2023-07-28T04:19:26;3.75;;;2.65;;
24216;SDS011;12356;49.386;8.688;2023-07-28T04:21:57;2.90;;;2.53;;
24216;SDS011;12356;49.386;8.688;2023-07-28T04:24:27;3.30;;;2.80;;
24216;SDS011;12356;49.386;8.688;2023-07-28T04:26:58;8.82;;;2.70;;
24216;SDS011;12356;49.386;8.688;2023-07-28T04:29:28;6.10;;;3.10;;
24216;SDS011;12356;49.386;8.688;2023-07-28T04:31:59;3.53;;;2.60;;
24216;SDS011;12356;49.386;8.688;2023-07-28T04:34:32;3.70;;;2.70;;
24216;SDS011;12356;49.386;8.688;2023-07-28T04:37:03;3.10;;;2.60;;
24216;SDS011;12356;49.386;8.688;2023-07-28T04:39:34;4.05;;;2.72;;
24216;SDS011;12356;49.386;8.688;2023-07-28T04:42:04;4.10;;;2.58;;
24216;SDS011;12356;49.386;8.688;2023-07-28T04:44:36;3.13;;;2.60;;
24216;SDS011;12356;49.386;8.688;2023-07-28T04:47:07;5.43;;;2.50;;
24216;SDS011;12356;49.386;8.688;2023-07-28T04:49:38;3.75;;;2.70;;
24216;SDS011;12356;49.386;8.688;2023-07-28T04:52:08;2.88;;;2.53;;
24216;SDS011;12356;49.386;8.688;2023-07-28T04:54:39;2.83;;;2.53;;
24216;SDS011;12356;49.386;8.688;2023-07-28T04:57:09;4.25;;;2.63;;
24216;SDS011;12356;49.386;8.688;2023-07-28T04:59:41;5.45;;;2.70;;
24216;SDS011;12356;49.386;8.688;2023-07-28T05:02:13;6.40;;;2.60;;
24216;SDS011;12356;49.386;8.688;2023-07-28T05:04:43;3.22;;;2.47;;
24216;SDS011;12356;49.386;8.688;2023-07-28T05:07:14;3.80;;;2.70;;
24216;SDS011;12356;49.386;8.688;2023-07-28T05:09:44;3.17;;;2.63;;
24216;SDS011;12356;49.386;8.688;2023-07-28T05:12:15;3.85;;;2.70;;
24216;SDS011;12356;49.386;8.688;2023-07-28T05:14:46;4.38;;;2.47;;
24216;SDS011;12356;49.386;8.688;2023-07-28T05:17:16;5.63;;;2.83;;
24216;SDS011;12356;49.386;8.688;2023-07-28T05:19:47;5.50;;;2.92;;
24216;SDS011;12356;49.386;8.688;2023-07-28T05:22:17;3.58;;;2.72;;
24216;SDS011;12356;49.386;8.688;2023-07-28T05:24:48;3.67;;;2.50;;
24216;SDS011;12356;49.386;8.688;2023-07-28T05:27:18;6.82;;;2.80;;
24216;SDS011;12356;49.386;8.688;2023-07-28T05:29:49;3.15;;;2.75;;
24216;SDS011;12356;49.386;8.688;2023-07-28T05:32:19;7.80;;;2.80;;
24216;SDS011;12356;49.386;8.688;2023-07-28T05:34:50;4.38;;;2.58;;
24216;SDS011;12356;49.386;8.688;2023-07-28T05:37:21;3.15;;;2.60;;
24216;SDS011;12356;49.386;8.688;2023-07-28T05:39:51;3.00;;;2.40;;
24216;SDS011;12356;49.386;8.688;2023-07-28T05:42:22;2.67;;;2.38;;
24216;SDS011;12356;49.386;8.688;2023-07-28T05:44:54;3.60;;;2.70;;
24216;SDS011;12356;49.386;8.688;2023-07-28T05:47:25;3.53;;;2.17;;
24216;SDS011;12356;49.386;8.688;2023-07-28T05:49:55;7.38;;;2.60;;
24216;SDS011;12356;49.386;8.688;2023-07-28T05:52:26;3.05;;;2.17;;
24216;SDS011;12356;49.386;8.688;2023-07-28T05:54:56;3.75;;;2.25;;
24216;SDS011;12356;49.386;8.688;2023-07-28T05:57:27;2.67;;;2.35;;
24216;SDS011;12356;49.386;8.688;2023-07-28T05:59:57;3.53;;;2.20;;
24216;SDS011;12356;49.386;8.688;2023-07-28T06:02:28;2.40;;;2.20;;
24216;SDS011;12356;49.386;8.688;2023-07-28T06:04:58;2.95;;;2.33;;
24216;SDS011;12356;49.386;8.688;2023-07-28T06:07:29;6.22;;;2.28;;
24216;SDS011;12356;49.386;8.688;2023-07-28T06:09:59;4.85;;;2.10;;
24216;SDS011;12356;49.386;8.688;2023-07-28T06:12:30;2.70;;;2.30;;
24216;SDS011;12356;49.386;8.688;2023-07-28T06:15:01;2.80;;;2.00;;
24216;SDS011;12356;49.386;8.688;2023-07-28T06:17:31;3.60;;;2.15;;
24216;SDS011;12356;49.386;8.688;2023-07-28T06:20:02;4.93;;;2.30;;
24216;SDS011;12356;49.386;8.688;2023-07-28T06:22:33;2.45;;;1.95;;
24216;SDS011;12356;49.386;8.688;2023-07-28T06:25:03;2.28;;;2.08;;
24216;SDS011;12356;49.386;8.688;2023-07-28T06:27:34;5.00;;;2.47;;
24216;SDS011;12356;49.386;8.688;2023-07-28T06:30:05;4.20;;;2.42;;
24216;SDS011;12356;49.386;8.688;2023-07-28T06:32:36;3.30;;;2.70;;
24216;SDS011;12356;49.386;8.688;2023-07-28T06:35:07;7.70;;;2.88;;
24216;SDS011;12356;49.386;8.688;2023-07-28T06:37:39;4.95;;;3.25;;
24216;SDS011;12356;49.386;8.688;2023-07-28T06:40:09;4.57;;;3.50;;
24216;SDS011;12356;49.386;8.688;2023-07-28T06:42:40;4.75;;;3.63;;
24216;SDS011;12356;49.386;8.688;2023-07-28T06:45:11;5.18;;;3.53;;
24216;SDS011;12356;49.386;8.688;2023-07-28T06:47:42;7.13;;;3.90;;
24216;SDS011;12356;49.386;8.688;2023-07-28T06:50:13;6.05;;;4.32;;
24216;SDS011;12356;49.386;8.688;2023-07-28T06:52:43;5.05;;;3.90;;
24216;SDS011;12356;49.386;8.688;2023-07-28T06:55:14;7.18;;;4.50;;
24216;SDS011;12356;49.386;8.688;2023-07-28T06:57:46;4.97;;;4.00;;
24216;SDS011;12356;49.386;8.688;2023-07-28T07:00:17;4.60;;;3.90;;
24216;SDS011;12356;49.386;8.688;2023-07-28T07:02:50;7.93;;;4.43;;
24216;SDS011;12356;49.386;8.688;2023-07-28T07:05:21;5.93;;;4.35;;
24216;SDS011;12356;49.386;8.688;2023-07-28T07:07:51;6.32;;;4.50;;
24216;SDS011;12356;49.386;8.688;2023-07-28T07:10:22;8.05;;;4.20;;
24216;SDS011;12356;49.386;8.688;2023-07-28T07:12:53;5.43;;;4.00;;
24216;SDS011;12356;49.386;8.688;2023-07-28T07:15:23;6.05;;;4.40;;
24216;SDS011;12356;49.386;8.688;2023-07-28T07:17:54;6.78;;;4.28;;
24216;SDS011;12356;49.386;8.688;2023-07-28T07:20:25;6.82;;;4.20;;
24216;SDS011;12356;49.386;8.688;2023-07-28T07:22:56;8.38;;;4.22;;
24216;SDS011;12356;49.386;8.688;2023-07-28T07:25:26;8.38;;;4.57;;
24216;SDS011;12356;49.386;8.688;2023-07-28T07:27:57;6.32;;;4.30;;
24216;SDS011;12356;49.386;8.688;2023-07-28T07:30:27;6.95;;;4.35;;
24216;SDS011;12356;49.386;8.688;2023-07-28T07:32:58;4.50;;;3.97;;
24216;SDS011;12356;49.386;8.688;2023-07-28T07:35:29;7.20;;;3.90;;
24216;SDS011;12356;49.386;8.688;2023-07-28T07:37:59;7.75;;;4.55;;
24216;SDS011;12356;49.386;8.688;2023-07-28T07:40:30;7.55;;;4.50;;
24216;SDS011;12356;49.386;8.688;2023-07-28T07:43:00;5.53;;;4.10;;
24216;SDS011;12356;49.386;8.688;2023-07-28T07:45:33;6.10;;;4.45;;
24216;SDS011;12356;49.386;8.688;2023-07-28T07:48:03;7.22;;;4.10;;
24216;SDS011;12356;49.386;8.688;2023-07-28T07:50:34;9.45;;;4.30;;
24216;SDS011;12356;49.386;8.688;2023-07-28T07:53:04;4.85;;;4.00;;
24216;SDS011;12356;49.386;8.688;2023-07-28T07:55:35;4.70;;;3.55;;
24216;SDS011;12356;49.386;8.688;2023-07-28T07:58:06;6.57;;;4.20;;
24216;SDS011;12356;49.386;8.688;2023-07-28T08:00:37;4.50;;;3.85;;
24216;SDS011;12356;49.386;8.688;2023-07-28T08:03:08;4.35;;;3.70;;
24216;SDS011;12356;49.386;8.688;2023-07-28T08:05:40;9.93;;;3.50;;
24216;SDS011;12356;49.386;8.688;2023-07-28T08:08:10;6.75;;;3.72;;
24216;SDS011;12356;49.386;8.688;2023-07-28T08:10:41;6.25;;;3.67;;
24216;SDS011;12356;49.386;8.688;2023-07-28T08:13:12;4.45;;;3.80;;
24216;SDS011;12356;49.386;8.688;2023-07-28T08:15:43;4.13;;;3.72;;
24216;SDS011;12356;49.386;8.688;2023-07-28T08:18:14;5.95;;;3.65;;
24216;SDS011;12356;49.386;8.688;2023-07-28T08:20:45;4.38;;;3.55;;
24216;SDS011;12356;49.386;8.688;2023-07-28T08:23:15;5.80;;;3.67;;
24216;SDS011;12356;49.386;8.688;2023-07-28T08:25:46;4.35;;;3.45;;
24216;SDS011;12356;49.386;8.688;2023-07-28T08:28:16;4.15;;;3.22;;
24216;SDS011;12356;49.386;8.688;2023-07-28T08:30:56;5.18;;;3.30;;
24216;SDS011;12356;49.386;8.688;2023-07-28T08:33:27;4.10;;;3.30;;
24216;SDS011;12356;49.386;8.688;2023-07-28T08:35:58;5.00;;;3.40;;
24216;SDS011;12356;49.386;8.688;2023-07-28T08:38:29;8.60;;;3.70;;
24216;SDS011;12356;49.386;8.688;2023-07-28T08:40:59;6.20;;;4.22;;
24216;SDS011;12356;49.386;8.688;2023-07-28T08:43:30;5.65;;;4.18;;
24216;SDS011;12356;49.386;8.688;2023-07-28T08:46:01;4.22;;;3.35;;
24216;SDS011;12356;49.386;8.688;2023-07-28T08:48:33;5.32;;;3.28;;
24216;SDS011;12356;49.386;8.688;2023-07-28T08:51:04;4.53;;;3.10;;
24216;SDS011;12356;49.386;8.688;2023-07-28T08:53:34;4.10;;;3.25;;
24216;SDS011;12356;49.386;8.688;2023-07-28T08:56:05;6.53;;;3.38;;
24216;SDS011;12356;49.386;8.688;2023-07-28T08:58:36;3.97;;;3.20;;
24216;SDS011;12356;49.386;8.688;2023-07-28T09:01:07;4.72;;;3.40;;
24216;SDS011;12356;49.386;8.688;2023-07-28T09:03:41;3.88;;;3.40;;
24216;SDS011;12356;49.386;8.688;2023-07-28T09:06:12;4.78;;;3.75;;
24216;SDS011;12356;49.386;8.688;2023-07-28T09:08:43;5.47;;;3.67;;
24216;SDS011;12356;49.386;8.688;2023-07-28T09:11:13;4.28;;;3.75;;
24216;SDS011;12356;49.386;8.688;2023-07-28T09:13:44;4.50;;;3.67;;
24216;SDS011;12356;49.386;8.688;2023-07-28T09:16:18;3.90;;;3.40;;
24216;SDS011;12356;49.386;8.688;2023-07-28T09:18:49;3.75;;;3.38;;
24216;SDS011;12356;49.386;8.688;2023-07-28T09:21:20;7.18;;;4.10;;
24216;SDS011;12356;49.386;8.688;2023-07-28T09:23:51;10.30;;;3.80;;
24216;SDS011;12356;49.386;8.688;2023-07-28T09:26:21;4.22;;;3.72;;
24216;SDS011;12356;49.386;8.688;2023-07-28T09:28:52;5.00;;;4.30;;
24216;SDS011;12356;49.386;8.688;2023-07-28T09:31:29;4.38;;;3.97;;
24216;SDS011;12356;49.386;8.688;2023-07-28T09:34:01;6.57;;;3.58;;
24216;SDS011;12356;49.386;8.688;2023-07-28T09:36:31;5.05;;;3.70;;
24216;SDS011;12356;49.386;8.688;2023-07-28T09:39:03;7.82;;;3.38;;
24216;SDS011;12356;49.386;8.688;2023-07-28T09:41:37;4.22;;;3.15;;
24216;SDS011;12356;49.386;8.688;2023-07-28T09:44:08;6.43;;;3.30;;
24216;SDS011;12356;49.386;8.688;2023-07-28T09:46:46;3.88;;;3.30;;
24216;SDS011;12356;49.386;8.688;2023-07-28T09:49:24;3.25;;;2.95;;
24216;SDS011;12356;49.386;8.688;2023-07-28T09:52:05;4.35;;;2.97;;
24216;SDS011;12356;49.386;8.688;2023-07-28T09:54:39;3.45;;;3.15;;
24216;SDS011;12356;49.386;8.688;2023-07-28T09:57:14;6.35;;;3.10;;
24216;SDS011;12356;49.386;8.688;2023-07-28T09:59:51;5.00;;;3.17;;
24216;SDS011;12356;49.386;8.688;2023-07-28T10:02:24;4.82;;;2.83;;
24216;SDS011;12356;49.386;8.688;2023-07-28T10:04:55;3.42;;;2.63;;
24216;SDS011;12356;49.386;8.688;2023-07-28T10:07:26;2.78;;;2.13;;
24216;SDS011;12356;49.386;8.688;2023-07-28T10:09:57;4.13;;;2.08;;
24216;SDS011;12356;49.386;8.688;2023-07-28T10:12:28;3.92;;;2.20;;
24216;SDS011;12356;49.386;8.688;2023-07-28T10:15:02;2.65;;;1.92;;
24216;SDS011;12356;49.386;8.688;2023-07-28T10:17:34;2.63;;;2.15;;
24216;SDS011;12356;49.386;8.688;2023-07-28T10:20:05;4.47;;;2.40;;
24216;SDS011;12356;49.386;8.688;2023-07-28T10:22:44;3.90;;;2.38;;
24216;SDS011;12356;49.386;8.688;2023-07-28T10:25:21;2.63;;;2.35;;
24216;SDS011;12356;49.386;8.688;2023-07-28T10:27:53;3.80;;;2.72;;
24216;SDS011;12356;49.386;8.688;2023-07-28T10:30:24;3.45;;;2.60;;
24216;SDS011;12356;49.386;8.688;2023-07-28T10:32:55;3.60;;;2.60;;
24216;SDS011;12356;49.386;8.688;2023-07-28T10:35:26;5.78;;;2.70;;
24216;SDS011;12356;49.386;8.688;2023-07-28T10:37:57;2.80;;;2.60;;
24216;SDS011;12356;49.386;8.688;2023-07-28T10:40:32;3.83;;;2.50;;
24216;SDS011;12356;49.386;8.688;2023-07-28T10:43:08;3.47;;;2.40;;
24216;SDS011;12356;49.386;8.688;2023-07-28T10:45:39;2.95;;;2.53;;
24216;SDS011;12356;49.386;8.688;2023-07-28T10:48:10;3.22;;;2.72;;
24216;SDS011;12356;49.386;8.688;2023-07-28T10:50:42;3.30;;;2.72;;
24216;SDS011;12356;49.386;8.688;2023-07-28T10:53:13;3.00;;;2.67;;
24216;SDS011;12356;49.386;8.688;2023-07-28T10:55:44;4.32;;;3.00;;
24216;SDS011;12356;49.386;8.688;2023-07-28T10:58:15;3.50;;;2.90;;
24216;SDS011;12356;49.386;8.688;2023-07-28T11:00:45;2.92;;;2.70;;
24216;SDS011;12356;49.386;8.688;2023-07-28T11:03:16;4.40;;;2.70;;
24216;SDS011;12356;49.386;8.688;2023-07-28T11:05:48;6.20;;;2.97;;
24216;SDS011;12356;49.386;8.688;2023-07-28T11:08:19;3.65;;;2.70;;
24216;SDS011;12356;49.386;8.688;2023-07-28T11:10:50;5.07;;;3.00;;
24216;SDS011;12356;49.386;8.688;2023-07-28T11:13:20;3.22;;;2.92;;
24216;SDS011;12356;49.386;8.688;2023-07-28T11:15:52;3.78;;;3.13;;
24216;SDS011;12356;49.386;8.688;2023-07-28T11:18:25;4.50;;;3.30;;
24216;SDS011;12356;49.386;8.688;2023-07-28T11:20:56;3.45;;;3.00;;
24216;SDS011;12356;49.386;8.688;2023-07-28T11:23:26;6.00;;;3.00;;
24216;SDS011;12356;49.386;8.688;2023-07-28T11:25:58;5.20;;;2.80;;
24216;SDS011;12356;49.386;8.688;2023-07-28T11:28:29;5.85;;;3.30;;
24216;SDS011;12356;49.386;8.688;2023-07-28T11:31:00;4.53;;;2.90;;
24216;SDS011;12356;49.386;8.688;2023-07-28T11:33:31;3.55;;;2.92;;
24216;SDS011;12356;49.386;8.688;2023-07-28T11:36:02;3.15;;;2.85;;
24216;SDS011;12356;49.386;8.688;2023-07-28T11:38:33;4.47;;;3.08;;
24216;SDS011;12356;49.386;8.688;2023-07-28T11:41:05;3.55;;;3.10;;
24216;SDS011;12356;49.386;8.688;2023-07-28T11:43:36;4.43;;;2.97;;
24216;SDS011;12356;49.386;8.688;2023-07-28T11:46:31;3.58;;;2.90;;
24216;SDS011;12356;49.386;8.688;2023-07-28T11:51:46;2.60;;;2.40;;
24216;SDS011;12356;49.386;8.688;2023-07-28T11:54:20;3.00;;;2.70;;
24216;SDS011;12356;49.386;8.688;2023-07-28T11:56:54;3.80;;;2.45;;
24216;SDS011;12356;49.386;8.688;2023-07-28T11:59:25;3.50;;;2.65;;
24216;SDS011;12356;49.386;8.688;2023-07-28T12:01:58;3.92;;;2.55;;
24216;SDS011;12356;49.386;8.688;2023-07-28T12:04:39;3.28;;;2.30;;
24216;SDS011;12356;49.386;8.688;2023-07-28T12:07:12;2.85;;;2.60;;
24216;SDS011;12356;49.386;8.688;2023-07-28T12:12:17;4.40;;;2.45;;
24216;SDS011;12356;49.386;8.688;2023-07-28T12:14:50;3.05;;;2.60;;
24216;SDS011;12356;49.386;8.688;2023-07-28T12:17:24;2.63;;;2.30;;
24216;SDS011;12356;49.386;8.688;2023-07-28T12:22:30;3.60;;;2.80;;
24216;SDS011;12356;49.386;8.688;2023-07-28T12:25:01;3.78;;;2.10;;
24216;SDS011;12356;49.386;8.688;2023-07-28T12:27:31;2.53;;;2.22;;
24216;SDS011;12356;49.386;8.688;2023-07-28T12:30:03;3.50;;;2.35;;
24216;SDS011;12356;49.386;8.688;2023-07-28T12:32:34;2.20;;;2.00;;
24216;SDS011;12356;49.386;8.688;2023-07-28T12:35:05;1.98;;;1.88;;
24216;SDS011;12356;49.386;8.688;2023-07-28T12:37:35;2.38;;;1.90;;
24216;SDS011;12356;49.386;8.688;2023-07-28T12:40:06;2.17;;;1.98;;
24216;SDS011;12356;49.386;8.688;2023-07-28T12:42:38;2.10;;;1.90;;
24216;SDS011;12356;49.386;8.688;2023-07-28T12:45:08;2.17;;;1.98;;
24216;SDS011;12356;49.386;8.688;2023-07-28T12:47:41;2.63;;;2.00;;
24216;SDS011;12356;49.386;8.688;2023-07-28T12:50:13;2.25;;;2.00;;
24216;SDS011;12356;49.386;8.688;2023-07-28T12:52:43;4.13;;;2.20;;
24216;SDS011;12356;49.386;8.688;2023-07-28T12:55:14;3.13;;;2.30;;
24216;SDS011;12356;49.386;8.688;2023-07-28T12:57:46;3.10;;;2.30;;
24216;SDS011;12356;49.386;8.688;2023-07-28T13:00:18;3.15;;;2.22;;
24216;SDS011;12356;49.386;8.688;2023-07-28T13:02:49;3.15;;;2.30;;
24216;SDS011;12356;49.386;8.688;2023-07-28T13:05:19;5.45;;;2.55;;
24216;SDS011;12356;49.386;8.688;2023-07-28T13:07:50;4.32;;;2.40;;
24216;SDS011;12356;49.386;8.688;2023-07-28T13:10:20;3.63;;;2.40;;
24216;SDS011;12356;49.386;8.688;2023-07-28T13:12:51;2.70;;;2.28;;
24216;SDS011;12356;49.386;8.688;2023-07-28T13:15:21;5.30;;;2.63;;
24216;SDS011;12356;49.386;8.688;2023-07-28T13:17:52;3.45;;;2.40;;
24216;SDS011;12356;49.386;8.688;2023-07-28T13:20:22;4.28;;;2.35;;
24216;SDS011;12356;49.386;8.688;2023-07-28T13:22:53;3.30;;;2.70;;
24216;SDS011;12356;49.386;8.688;2023-07-28T13:25:23;5.85;;;2.97;;
24216;SDS011;12356;49.386;8.688;2023-07-28T13:27:54;5.40;;;2.78;;
24216;SDS011;12356;49.386;8.688;2023-07-28T13:30:25;4.57;;;2.90;;
24216;SDS011;12356;49.386;8.688;2023-07-28T13:32:55;5.00;;;3.08;;
24216;SDS011;12356;49.386;8.688;2023-07-28T13:35:26;3.80;;;3.00;;
24216;SDS011;12356;49.386;8.688;2023-07-28T13:37:56;6.60;;;2.80;;
24216;SDS011;12356;49.386;8.688;2023-07-28T13:40:27;4.07;;;2.88;;
24216;SDS011;12356;49.386;8.688;2023-07-28T13:42:57;4.65;;;2.83;;
24216;SDS011;12356;49.386;8.688;2023-07-28T13:45:28;4.32;;;3.10;;
24216;SDS011;12356;49.386;8.688;2023-07-28T13:47:59;4.32;;;3.20;;
24216;SDS011;12356;49.386;8.688;2023-07-28T13:50:30;4.38;;;3.30;;
24216;SDS011;12356;49.386;8.688;2023-07-28T13:53:00;6.05;;;3.33;;
24216;SDS011;12356;49.386;8.688;2023-07-28T13:55:31;4.65;;;3.50;;
24216;SDS011;12356;49.386;8.688;2023-07-28T13:58:01;4.38;;;3.60;;
24216;SDS011;12356;49.386;8.688;2023-07-28T14:00:32;5.18;;;3.63;;
24216;SDS011;12356;49.386;8.688;2023-07-28T14:03:03;6.35;;;3.83;;
24216;SDS011;12356;49.386;8.688;2023-07-28T14:05:33;6.68;;;3.92;;
24216;SDS011;12356;49.386;8.688;2023-07-28T14:08:04;4.57;;;3.90;;
24216;SDS011;12356;49.386;8.688;2023-07-28T14:10:35;6.68;;;3.50;;
24216;SDS011;12356;49.386;8.688;2023-07-28T14:13:08;6.43;;;3.00;;
24216;SDS011;12356;49.386;8.688;2023-07-28T14:15:39;5.18;;;3.30;;
24216;SDS011;12356;49.386;8.688;2023-07-28T14:18:09;4.70;;;3.28;;
24216;SDS011;12356;49.386;8.688;2023-07-28T14:20:40;4.28;;;3.30;;
24216;SDS011;12356;49.386;8.688;2023-07-28T14:23:20;5.78;;;3.22;;
24216;SDS011;12356;49.386;8.688;2023-07-28T14:25:55;5.20;;;3.42;;
24216;SDS011;12356;49.386;8.688;2023-07-28T14:28:26;3.85;;;3.17;;
24216;SDS011;12356;49.386;8.688;2023-07-28T14:30:56;3.85;;;2.78;;
24216;SDS011;12356;49.386;8.688;2023-07-28T14:33:27;7.50;;;2.90;;
24216;SDS011;12356;49.386;8.688;2023-07-28T14:35:57;5.43;;;3.05;;
24216;SDS011;12356;49.386;8.688;2023-07-28T14:38:28;4.10;;;2.90;;
24216;SDS011;12356;49.386;8.688;2023-07-28T14:40:59;4.35;;;2.92;;
24216;SDS011;12356;49.386;8.688;2023-07-28T14:43:30;4.50;;;3.05;;
24216;SDS011;12356;49.386;8.688;2023-07-28T14:46:00;4.78;;;2.92;;
24216;SDS011;12356;49.386;8.688;2023-07-28T14:48:31;4.22;;;2.97;;
24216;SDS011;12356;49.386;8.688;2023-07-28T14:51:01;4.57;;;3.30;;
24216;SDS011;12356;49.386;8.688;2023-07-28T14:53:33;4.45;;;3.17;;
24216;SDS011;12356;49.386;8.688;2023-07-28T14:56:05;5.80;;;3.63;;
24216;SDS011;12356;49.386;8.688;2023-07-28T14:58:36;5.22;;;3.65;;
24216;SDS011;12356;49.386;8.688;2023-07-28T15:01:07;4.47;;;3.38;;
24216;SDS011;12356;49.386;8.688;2023-07-28T15:03:40;6.53;;;3.88;;
24216;SDS011;12356;49.386;8.688;2023-07-28T15:06:10;5.60;;;3.80;;
24216;SDS011;12356;49.386;8.688;2023-07-28T15:08:41;5.38;;;4.00;;
24216;SDS011;12356;49.386;8.688;2023-07-28T15:11:12;5.47;;;3.78;;
24216;SDS011;12356;49.386;8.688;2023-07-28T15:13:42;5.45;;;3.60;;
24216;SDS011;12356;49.386;8.688;2023-07-28T15:16:13;4.88;;;3.33;;
24216;SDS011;12356;49.386;8.688;2023-07-28T15:18:44;4.95;;;3.42;;
24216;SDS011;12356;49.386;8.688;2023-07-28T15:21:14;5.03;;;3.22;;
24216;SDS011;12356;49.386;8.688;2023-07-28T15:23:45;5.75;;;3.28;;
24216;SDS011;12356;49.386;8.688;2023-07-28T15:26:22;5.38;;;3.00;;